Time;durP1;ratioP1;P1;durP2;ratioP2;P2;SDS_P1;SDS_P2;PMS_P1;PMS_P2;Temp;Humidity;BMP_temperature;BMP_pressure;BME280_temperature;BME280_humidity;BME280_pressure;Samples;Min_cycle;Max_cycle;Signal;HPM_P1;HPM_P2
2021/12/29 00:00:27;;;;;;;48.00;23.60;;;4.70;86.70;;;;;;5090727;28;20531;-61
2021/12/29 00:02:54;;;;;;;45.88;23.50;;;4.60;86.60;;;;;;5090437;28;20032;-61
2021/12/29 00:05:20;;;;;;;47.85;24.77;;;4.70;86.80;;;;;;5084740;28;20029;-61
2021/12/29 00:07:46;;;;;;;49.58;23.70;;;4.70;86.70;;;;;;5069113;28;20174;-62
2021/12/29 00:10:14;;;;;;;47.53;23.90;;;4.70;86.50;;;;;;5069945;28;20124;-61
2021/12/29 00:12:45;;;;;;;47.05;23.55;;;4.80;86.30;;;;;;5070541;28;20043;-61
2021/12/29 00:15:13;;;;;;;44.95;22.67;;;4.70;86.10;;;;;;5068775;28;20051;-61
2021/12/29 00:17:42;;;;;;;50.05;24.90;;;4.70;86.40;;;;;;5079368;28;20090;-61
2021/12/29 00:20:09;;;;;;;51.33;24.60;;;4.70;86.40;;;;;;5068755;28;20032;-61
2021/12/29 00:22:35;;;;;;;47.97;23.55;;;4.70;86.60;;;;;;5070510;28;20535;-62
2021/12/29 00:25:02;;;;;;;52.00;24.77;;;4.70;86.50;;;;;;5068447;28;20033;-62
2021/12/29 00:27:27;;;;;;;52.70;24.65;;;4.70;86.30;;;;;;5070473;28;20029;-62
2021/12/29 00:29:53;;;;;;;53.85;24.83;;;4.70;86.40;;;;;;5070117;28;20021;-63
2021/12/29 00:32:19;;;;;;;48.83;23.92;;;4.70;86.60;;;;;;5071422;28;20031;-62
2021/12/29 00:34:44;;;;;;;58.67;26.10;;;4.80;86.60;;;;;;5091952;28;20111;-61
2021/12/29 00:37:10;;;;;;;50.03;25.73;;;4.80;86.60;;;;;;5087171;28;20511;-61
2021/12/29 00:39:36;;;;;;;53.63;26.30;;;4.70;86.50;;;;;;5074383;28;20023;-61
2021/12/29 00:42:02;;;;;;;51.92;25.13;;;4.80;86.60;;;;;;5073644;28;20078;-61
2021/12/29 00:44:30;;;;;;;54.65;25.55;;;4.80;86.60;;;;;;5074039;28;20028;-61
2021/12/29 00:46:56;;;;;;;54.13;25.85;;;4.80;86.50;;;;;;5072229;28;20037;-61
2021/12/29 00:49:24;;;;;;;60.10;26.85;;;4.80;86.40;;;;;;5075907;28;20084;-61
2021/12/29 00:51:51;;;;;;;60.40;26.40;;;4.80;86.40;;;;;;5089722;28;20065;-62
2021/12/29 00:54:16;;;;;;;53.75;25.83;;;4.80;86.30;;;;;;5073175;28;20108;-61
2021/12/29 00:56:44;;;;;;;55.65;27.35;;;4.70;86.40;;;;;;5072952;28;20418;-61
2021/12/29 00:59:10;;;;;;;52.42;25.48;;;4.70;86.50;;;;;;5053547;28;20158;-61
2021/12/29 01:01:54;;;;;;;54.53;24.95;;;4.70;86.70;;;;;;5056681;28;20193;-61
2021/12/29 01:04:20;;;;;;;57.60;26.95;;;4.70;86.70;;;;;;5074137;28;20032;-60
2021/12/29 01:06:46;;;;;;;58.33;26.90;;;4.70;86.90;;;;;;5076276;28;20028;-60
2021/12/29 01:09:12;;;;;;;67.05;28.63;;;4.70;87.10;;;;;;5072157;28;20032;-61
2021/12/29 01:11:38;;;;;;;60.05;26.77;;;4.60;87.00;;;;;;5074186;28;20044;-60
2021/12/29 01:14:07;;;;;;;58.83;27.38;;;4.60;87.10;;;;;;5071834;28;20030;-60
2021/12/29 01:19:10;;;;;;;62.22;27.92;;;4.60;87.40;;;;;;5072604;28;20037;-61
2021/12/29 01:21:37;;;;;;;65.70;28.38;;;4.60;87.40;;;;;;5072903;28;20048;-61
2021/12/29 01:24:09;;;;;;;73.28;29.10;;;4.60;87.40;;;;;;5092279;28;20032;-61
2021/12/29 01:26:35;;;;;;;72.88;30.95;;;4.60;87.50;;;;;;5093932;28;20481;-61
2021/12/29 01:29:02;;;;;;;66.00;29.83;;;4.60;87.60;;;;;;5077110;28;20091;-62
2021/12/29 01:31:27;;;;;;;67.72;29.08;;;4.60;87.70;;;;;;5072362;28;20024;-62
2021/12/29 01:33:53;;;;;;;63.30;27.25;;;4.60;87.50;;;;;;5073090;28;20066;-63
2021/12/29 01:36:19;;;;;;;55.30;26.17;;;4.60;87.40;;;;;;5072745;28;20055;-62
2021/12/29 01:38:45;;;;;;;66.72;28.80;;;4.70;87.40;;;;;;5072133;28;20033;-61
2021/12/29 01:41:11;;;;;;;67.70;29.38;;;4.60;87.20;;;;;;5069340;28;20036;-61
2021/12/29 01:43:36;;;;;;;59.35;28.60;;;4.70;87.30;;;;;;5073379;28;20494;-62
2021/12/29 01:46:02;;;;;;;64.50;28.48;;;4.70;87.30;;;;;;5071456;28;20487;-61
2021/12/29 01:48:28;;;;;;;63.08;28.05;;;4.80;87.10;;;;;;5072757;28;20471;-62
2021/12/29 01:50:56;;;;;;;60.60;27.42;;;4.80;86.90;;;;;;5072367;28;20461;-64
2021/12/29 01:53:31;;;;;;;61.28;28.45;;;4.80;86.60;;;;;;5073113;28;20017;-61
2021/12/29 01:55:57;;;;;;;65.70;28.60;;;4.70;86.50;;;;;;5075764;28;20028;-63
2021/12/29 01:58:25;;;;;;;62.72;28.77;;;4.70;86.70;;;;;;5092989;28;20093;-61
2021/12/29 02:00:52;;;;;;;62.28;27.83;;;4.70;86.90;;;;;;5091667;28;20076;-62
2021/12/29 02:03:18;;;;;;;65.20;28.85;;;4.70;86.90;;;;;;5070688;28;20039;-61
2021/12/29 02:05:45;;;;;;;64.53;29.52;;;4.80;87.00;;;;;;5071593;28;20130;-61
2021/12/29 02:08:11;;;;;;;65.88;30.20;;;4.80;86.80;;;;;;5072210;28;20028;-61
2021/12/29 02:10:44;;;;;;;69.85;31.17;;;4.80;86.80;;;;;;5072553;28;20044;-61
2021/12/29 02:13:11;;;;;;;67.67;29.83;;;4.90;86.80;;;;;;5083776;28;20043;-61
2021/12/29 02:15:37;;;;;;;81.95;34.22;;;4.90;86.70;;;;;;5091538;28;20028;-61
2021/12/29 02:18:12;;;;;;;82.57;35.67;;;5.00;86.40;;;;;;5084612;28;20041;-62
2021/12/29 02:20:38;;;;;;;73.95;34.17;;;5.00;86.20;;;;;;5072887;28;20025;-61
2021/12/29 02:23:13;;;;;;;69.18;32.50;;;5.00;85.60;;;;;;5068502;28;20477;-62
2021/12/29 02:25:48;;;;;;;80.53;35.65;;;4.80;85.80;;;;;;5070279;28;20032;-61
2021/12/29 02:28:23;;;;;;;80.13;34.33;;;4.80;86.30;;;;;;5069331;28;20032;-62
2021/12/29 02:30:49;;;;;;;76.70;33.50;;;4.70;86.50;;;;;;5067493;28;20032;-61
2021/12/29 02:33:16;;;;;;;72.00;31.67;;;4.80;86.70;;;;;;5068963;28;20040;-61
2021/12/29 02:35:43;;;;;;;65.43;30.42;;;4.90;86.60;;;;;;5070517;28;20080;-62
2021/12/29 02:38:25;;;;;;;60.67;28.70;;;4.90;86.30;;;;;;5067828;28;20504;-61
2021/12/29 02:41:04;;;;;;;76.00;36.65;;;5.00;86.30;;;;;;5070232;28;20361;-62
2021/12/29 02:43:32;;;;;;;70.70;33.30;;;5.00;86.00;;;;;;5066349;28;20028;-62
2021/12/29 02:45:59;;;;;;;62.28;31.58;;;5.00;85.80;;;;;;5070415;28;20105;-63
2021/12/29 02:48:26;;;;;;;60.33;30.08;;;5.10;85.80;;;;;;5071073;28;20027;-62
2021/12/29 02:50:55;;;;;;;62.58;31.67;;;5.10;85.60;;;;;;5070940;28;20028;-61
2021/12/29 02:53:39;;;;;;;69.35;32.33;;;5.10;85.50;;;;;;5067887;28;20029;-62
2021/12/29 02:56:06;;;;;;;67.07;30.83;;;5.20;85.30;;;;;;5068326;28;20121;-62
2021/12/29 02:58:32;;;;;;;89.50;40.00;;;5.10;85.20;;;;;;5070556;28;20056;-61
2021/12/29 03:00:59;;;;;;;81.10;36.38;;;5.10;85.50;;;;;;5071114;28;20143;-63
2021/12/29 03:03:27;;;;;;;65.13;29.58;;;5.00;86.00;;;;;;5069427;28;20025;-62
2021/12/29 03:05:54;;;;;;;80.88;35.90;;;5.00;86.10;;;;;;5073048;28;20074;-62
2021/12/29 03:08:21;;;;;;;90.93;39.97;;;5.00;86.30;;;;;;5076741;28;20271;-63
2021/12/29 03:10:52;;;;;;;76.53;32.75;;;4.90;86.40;;;;;;5075286;28;20040;-61
2021/12/29 03:13:19;;;;;;;103.10;39.25;;;4.90;86.60;;;;;;5073625;28;20039;-62
2021/12/29 03:15:45;;;;;;;108.05;41.95;;;4.80;86.70;;;;;;5069666;28;20020;-63
2021/12/29 03:18:10;;;;;;;97.35;38.75;;;4.80;86.80;;;;;;5079818;28;20513;-62
2021/12/29 03:20:36;;;;;;;86.80;35.85;;;4.70;87.00;;;;;;5068644;28;20033;-62
2021/12/29 03:23:03;;;;;;;88.38;37.45;;;4.70;87.20;;;;;;5068604;28;20185;-63
2021/12/29 03:25:28;;;;;;;92.30;39.38;;;4.70;87.50;;;;;;5068645;28;20368;-62
2021/12/29 03:28:04;;;;;;;89.00;37.80;;;4.80;87.40;;;;;;5069576;28;20555;-62
2021/12/29 03:30:32;;;;;;;90.80;37.08;;;4.80;87.40;;;;;;5069008;28;20063;-62
2021/12/29 03:33:05;;;;;;;83.53;37.13;;;4.70;87.40;;;;;;5068318;28;20028;-62
2021/12/29 03:35:31;;;;;;;95.57;40.70;;;4.70;87.60;;;;;;5068968;28;20032;-62
2021/12/29 03:37:58;;;;;;;104.60;41.00;;;4.70;87.80;;;;;;5069483;28;20431;-62
2021/12/29 03:40:24;;;;;;;102.55;40.83;;;4.60;87.80;;;;;;5069123;28;20032;-61
2021/12/29 03:42:50;;;;;;;68.53;31.45;;;4.70;87.90;;;;;;5069073;28;20024;-61
2021/12/29 03:45:16;;;;;;;83.18;35.28;;;4.60;88.00;;;;;;5068372;28;20028;-61
2021/12/29 03:47:42;;;;;;;78.05;32.63;;;4.50;88.50;;;;;;5067726;28;20036;-61
2021/12/29 03:50:08;;;;;;;93.25;37.35;;;4.50;88.90;;;;;;5070495;28;20028;-61
2021/12/29 03:52:34;;;;;;;55.78;26.95;;;4.40;89.20;;;;;;5051310;28;20052;-61
2021/12/29 03:55:00;;;;;;;67.38;29.58;;;4.50;89.40;;;;;;5069596;28;20067;-62
2021/12/29 03:57:25;;;;;;;61.50;27.90;;;4.40;89.20;;;;;;5067697;28;20037;-61
2021/12/29 03:59:51;;;;;;;41.17;20.63;;;4.50;89.30;;;;;;5069261;28;20412;-61
2021/12/29 04:02:17;;;;;;;41.05;20.90;;;4.50;89.00;;;;;;5068161;28;20032;-61
2021/12/29 04:04:43;;;;;;;41.85;20.92;;;4.50;88.80;;;;;;5068607;28;20064;-61
2021/12/29 04:07:08;;;;;;;38.70;19.10;;;4.50;88.30;;;;;;5067617;28;20358;-61
2021/12/29 04:09:34;;;;;;;43.33;21.30;;;4.50;88.10;;;;;;5068851;28;20527;-61
2021/12/29 04:12:00;;;;;;;34.10;17.88;;;4.40;88.30;;;;;;5073086;28;20391;-62
2021/12/29 04:14:28;;;;;;;40.80;19.95;;;4.40;88.30;;;;;;5072857;28;20713;-61
2021/12/29 04:16:57;;;;;;;35.75;18.25;;;4.40;88.20;;;;;;5072502;28;20481;-61
2021/12/29 04:19:32;;;;;;;43.47;21.42;;;4.40;88.30;;;;;;5072273;28;20837;-61
2021/12/29 04:21:58;;;;;;;46.70;22.92;;;4.40;88.40;;;;;;5072833;28;20029;-61
2021/12/29 04:24:25;;;;;;;39.00;19.77;;;4.50;88.30;;;;;;5072132;28;20081;-61
2021/12/29 04:26:51;;;;;;;39.95;19.48;;;4.60;88.00;;;;;;5055166;28;20067;-61
2021/12/29 04:29:17;;;;;;;45.22;22.90;;;4.60;87.80;;;;;;5071900;28;20025;-61
2021/12/29 04:31:43;;;;;;;58.38;27.35;;;4.60;87.60;;;;;;5070629;28;20074;-61
2021/12/29 04:34:10;;;;;;;41.47;21.08;;;4.60;87.80;;;;;;5071914;28;20060;-61
2021/12/29 04:36:36;;;;;;;32.65;18.42;;;4.60;87.30;;;;;;5054705;28;20024;-61
2021/12/29 04:39:04;;;;;;;51.08;24.83;;;4.70;87.40;;;;;;5072325;28;20036;-63
2021/12/29 04:41:30;;;;;;;31.42;18.00;;;4.70;87.30;;;;;;5065760;28;20025;-61
2021/12/29 04:43:56;;;;;;;41.90;22.77;;;4.70;87.40;;;;;;5072172;28;20081;-62
2021/12/29 04:46:28;;;;;;;58.25;28.35;;;4.80;87.00;;;;;;5071565;28;20170;-62
2021/12/29 04:49:00;;;;;;;65.95;31.15;;;4.90;86.80;;;;;;5072159;28;20119;-61
2021/12/29 04:51:33;;;;;;;35.17;18.98;;;4.90;86.50;;;;;;5070633;28;20155;-61
2021/12/29 04:53:59;;;;;;;;;;;4.90;86.30;;;;;;5072488;28;20036;-62
2021/12/29 04:56:25;;;;;;;50.40;24.60;;;4.90;86.10;;;;;;5072394;28;19908;-61
2021/12/29 04:58:51;;;;;;;37.72;19.95;;;4.80;86.30;;;;;;5082245;28;20112;-61
2021/12/29 05:01:17;;;;;;;32.88;18.85;;;4.80;86.40;;;;;;5067011;28;20483;-62
2021/12/29 05:03:44;;;;;;;39.53;20.55;;;4.80;86.40;;;;;;5071312;28;20025;-61
2021/12/29 05:08:36;;;;;;;63.70;29.10;;;4.60;86.80;;;;;;5072158;28;20064;-62
2021/12/29 05:11:06;;;;;;;58.25;26.85;;;4.60;87.10;;;;;;5070031;28;20183;-63
2021/12/29 05:13:36;;;;;;;40.63;20.83;;;4.60;87.00;;;;;;5067740;28;20039;-63
2021/12/29 05:16:03;;;;;;;79.47;35.42;;;4.60;87.30;;;;;;5068849;28;20017;-62
2021/12/29 05:18:31;;;;;;;73.07;31.23;;;4.60;87.40;;;;;;5069544;28;20460;-62
2021/12/29 05:20:57;;;;;;;82.88;35.53;;;4.70;87.50;;;;;;5075886;28;20424;-61
2021/12/29 05:23:24;;;;;;;42.08;21.90;;;4.80;87.40;;;;;;5069849;28;20376;-62
2021/12/29 05:25:51;;;;;;;39.17;21.88;;;4.80;86.90;;;;;;5070705;28;20040;-61
2021/12/29 05:28:17;;;;;;;28.67;18.02;;;4.90;86.80;;;;;;5070157;28;20070;-61
2021/12/29 05:30:44;;;;;;;48.58;23.38;;;4.90;86.60;;;;;;5078531;28;20035;-62
2021/12/29 05:33:10;;;;;;;32.38;18.58;;;4.90;86.50;;;;;;5103292;28;20120;-62
2021/12/29 05:35:36;;;;;;;72.18;30.92;;;4.90;86.30;;;;;;5070237;28;20036;-61
2021/12/29 05:38:03;;;;;;;56.63;27.33;;;4.90;86.50;;;;;;5071419;28;20104;-62
2021/12/29 05:40:29;;;;;;;35.63;20.75;;;4.90;86.60;;;;;;5071685;28;20029;-61
2021/12/29 05:42:57;;;;;;;53.08;26.85;;;4.90;86.60;;;;;;5071785;28;20028;-61
2021/12/29 05:45:24;;;;;;;52.53;30.60;;;4.90;86.40;;;;;;5074639;28;20277;-61
2021/12/29 05:47:50;;;;;;;36.33;22.13;;;4.90;86.50;;;;;;5075461;28;20044;-61
2021/12/29 05:50:21;;;;;;;41.38;25.98;;;4.80;86.50;;;;;;5069496;28;20024;-61
2021/12/29 05:53:05;;;;;;;35.70;20.65;;;4.90;86.60;;;;;;5074113;28;20089;-62
2021/12/29 05:55:31;;;;;;;35.28;22.75;;;4.90;86.70;;;;;;5071129;28;20036;-61
2021/12/29 05:57:57;;;;;;;34.85;20.27;;;5.00;86.70;;;;;;5070224;28;20040;-62
2021/12/29 06:00:25;;;;;;;34.63;19.98;;;5.00;86.50;;;;;;5086186;28;20103;-61
2021/12/29 06:02:52;;;;;;;33.92;19.77;;;5.00;86.50;;;;;;5069582;28;20033;-61
2021/12/29 06:05:19;;;;;;;34.78;21.48;;;5.00;86.40;;;;;;5052407;28;20059;-62
2021/12/29 06:07:45;;;;;;;35.15;20.85;;;5.00;86.50;;;;;;5070434;28;20082;-62
2021/12/29 06:10:11;;;;;;;36.72;21.52;;;5.00;86.60;;;;;;5069913;28;20049;-62
2021/12/29 06:12:39;;;;;;;36.28;22.02;;;5.10;86.90;;;;;;5070567;28;20111;-62
2021/12/29 06:15:06;;;;;;;36.25;21.27;;;5.10;86.70;;;;;;5070453;28;20086;-63
2021/12/29 06:17:32;;;;;;;33.78;20.50;;;5.20;86.50;;;;;;5070084;28;20039;-63
2021/12/29 06:19:57;;;;;;;34.60;20.40;;;5.20;86.30;;;;;;5053853;28;20040;-62
2021/12/29 06:22:24;;;;;;;32.05;19.27;;;5.20;86.40;;;;;;5070078;28;20025;-62
2021/12/29 06:24:52;;;;;;;33.20;20.00;;;5.20;86.30;;;;;;5070485;28;20029;-62
2021/12/29 06:27:20;;;;;;;38.85;21.00;;;5.20;86.10;;;;;;5068594;28;20045;-62
2021/12/29 06:29:46;;;;;;;33.10;19.17;;;5.20;86.00;;;;;;5070697;28;20131;-62
2021/12/29 06:32:12;;;;;;;35.90;20.30;;;5.20;86.00;;;;;;5067401;28;20106;-62
2021/12/29 06:34:38;;;;;;;33.38;19.38;;;5.10;86.10;;;;;;5068403;28;20119;-63
2021/12/29 06:37:08;;;;;;;33.03;19.17;;;5.20;86.40;;;;;;5080077;28;20024;-64
2021/12/29 06:39:42;;;;;;;34.58;20.45;;;5.10;86.40;;;;;;5068995;28;20060;-62
2021/12/29 06:42:08;;;;;;;31.33;18.75;;;5.10;86.50;;;;;;5070219;28;20103;-62
2021/12/29 06:44:35;;;;;;;34.03;20.25;;;5.10;86.50;;;;;;5069267;28;20075;-62
2021/12/29 06:47:01;;;;;;;33.75;20.08;;;5.10;86.40;;;;;;5068395;28;20699;-62
2021/12/29 06:49:26;;;;;;;44.25;22.73;;;5.10;87.00;;;;;;5067470;28;20024;-61
2021/12/29 06:51:52;;;;;;;32.78;19.83;;;5.10;86.60;;;;;;5069994;28;20078;-62
2021/12/29 06:54:18;;;;;;;35.10;18.80;;;5.20;86.60;;;;;;5078397;28;20060;-62
2021/12/29 06:56:44;;;;;;;33.67;19.88;;;5.10;86.60;;;;;;5067216;28;20546;-62
2021/12/29 06:59:10;;;;;;;33.60;19.23;;;5.20;86.60;;;;;;5072690;28;20588;-63
2021/12/29 07:01:35;;;;;;;38.22;21.35;;;5.20;86.50;;;;;;5086425;28;20105;-62
2021/12/29 07:04:03;;;;;;;30.75;19.45;;;5.20;86.30;;;;;;5089339;28;20444;-62
2021/12/29 07:06:29;;;;;;;30.92;18.38;;;5.20;86.30;;;;;;5068405;28;20033;-62
2021/12/29 07:08:54;;;;;;;28.00;17.73;;;5.20;86.50;;;;;;5069399;28;20052;-62
2021/12/29 07:11:20;;;;;;;35.40;19.42;;;5.30;86.80;;;;;;5067452;28;20737;-62
2021/12/29 07:13:47;;;;;;;35.67;20.80;;;5.30;86.90;;;;;;5067937;28;20119;-62
2021/12/29 07:16:13;;;;;;;31.58;18.42;;;5.40;87.00;;;;;;5068318;28;20036;-62
2021/12/29 07:18:39;;;;;;;32.75;19.38;;;5.40;86.80;;;;;;5074934;28;20049;-62
2021/12/29 07:21:05;;;;;;;31.13;19.48;;;5.50;86.60;;;;;;5071550;28;20116;-63
2021/12/29 07:23:30;;;;;;;35.67;20.67;;;5.60;86.50;;;;;;5067301;28;20079;-62
2021/12/29 07:25:56;;;;;;;37.40;18.98;;;5.70;86.00;;;;;;5075900;28;20032;-62
2021/12/29 07:28:22;;;;;;;33.40;19.73;;;5.70;85.50;;;;;;5070708;28;20788;-62
2021/12/29 07:30:48;;;;;;;31.05;18.70;;;5.70;85.40;;;;;;5070272;28;20034;-61
2021/12/29 07:33:14;;;;;;;29.08;18.25;;;5.70;85.40;;;;;;5076442;28;20040;-61
2021/12/29 07:35:40;;;;;;;31.73;17.90;;;5.70;85.40;;;;;;5076539;28;20052;-61
2021/12/29 07:38:06;;;;;;;33.17;20.08;;;5.60;85.50;;;;;;5078652;28;20131;-62
2021/12/29 07:40:34;;;;;;;33.35;19.27;;;5.60;85.40;;;;;;5067235;28;20029;-61
2021/12/29 07:43:02;;;;;;;35.83;20.70;;;5.70;86.00;;;;;;5067940;28;20040;-61
2021/12/29 07:45:28;;;;;;;32.03;19.23;;;5.80;86.00;;;;;;5066952;28;20139;-61
2021/12/29 07:47:54;;;;;;;34.75;21.02;;;5.90;85.80;;;;;;5078799;28;20135;-61
2021/12/29 07:50:21;;;;;;;29.25;18.52;;;6.00;85.20;;;;;;5066115;28;20024;-61
2021/12/29 07:52:48;;;;;;;33.55;19.17;;;6.10;84.80;;;;;;5071563;28;20073;-62
2021/12/29 07:55:23;;;;;;;34.80;22.00;;;6.10;84.50;;;;;;5066590;28;20036;-62
2021/12/29 07:57:49;;;;;;;30.48;18.95;;;6.20;84.50;;;;;;5066215;28;20028;-62
2021/12/29 08:00:16;;;;;;;33.40;18.58;;;6.30;84.30;;;;;;5067416;28;20480;-63
2021/12/29 08:02:44;;;;;;;31.25;18.45;;;6.30;84.20;;;;;;5070996;28;20489;-62
2021/12/29 08:05:11;;;;;;;29.95;19.38;;;6.30;84.00;;;;;;5071608;28;20493;-62
2021/12/29 08:07:38;;;;;;;35.88;20.27;;;6.40;83.90;;;;;;5079465;28;20559;-61
2021/12/29 08:10:05;;;;;;;34.83;20.00;;;6.50;83.50;;;;;;5069228;28;20072;-62
2021/12/29 08:12:31;;;;;;;29.30;19.38;;;6.50;83.30;;;;;;5066918;28;20481;-61
2021/12/29 08:14:57;;;;;;;33.03;18.92;;;6.50;83.30;;;;;;5073044;28;20794;-62
2021/12/29 08:17:23;;;;;;;29.10;17.90;;;6.50;83.70;;;;;;5065576;28;20028;-61
2021/12/29 08:19:50;;;;;;;33.55;19.45;;;6.60;83.50;;;;;;5076530;28;20040;-63
2021/12/29 08:22:17;;;;;;;29.15;18.23;;;6.60;83.50;;;;;;5071407;28;20036;-61
2021/12/29 08:24:43;;;;;;;37.40;21.27;;;6.70;83.50;;;;;;5079111;28;20060;-63
2021/12/29 08:27:10;;;;;;;43.13;28.30;;;6.90;83.30;;;;;;5069322;28;20052;-63
2021/12/29 08:29:37;;;;;;;32.35;19.80;;;6.90;82.40;;;;;;5076483;28;20044;-62
2021/12/29 08:32:04;;;;;;;30.13;19.45;;;6.90;81.70;;;;;;5087555;28;20483;-62
2021/12/29 08:34:30;;;;;;;33.28;21.92;;;6.80;81.20;;;;;;5083104;28;20112;-62
2021/12/29 08:36:56;;;;;;;29.15;18.98;;;6.60;81.80;;;;;;5083893;28;20468;-62
2021/12/29 08:39:23;;;;;;;34.08;20.10;;;6.60;82.50;;;;;;5084850;28;20350;-62
2021/12/29 08:41:49;;;;;;;33.05;20.77;;;6.60;82.40;;;;;;5088799;28;20472;-62
2021/12/29 08:44:16;;;;;;;31.15;19.15;;;6.70;82.70;;;;;;5069754;28;20110;-62
2021/12/29 08:46:42;;;;;;;36.85;18.92;;;6.70;82.60;;;;;;5075036;28;20477;-62
2021/12/29 08:49:09;;;;;;;34.65;19.15;;;6.80;82.20;;;;;;5073901;28;20028;-63
2021/12/29 08:51:35;;;;;;;33.47;19.33;;;6.80;82.30;;;;;;5080468;28;20055;-61
2021/12/29 08:54:01;;;;;;;34.95;20.85;;;6.80;81.80;;;;;;5081676;28;20388;-62
2021/12/29 08:56:27;;;;;;;32.67;19.85;;;6.70;81.80;;;;;;5087399;28;20089;-61
2021/12/29 08:58:53;;;;;;;35.90;20.67;;;6.80;82.30;;;;;;5098290;28;20085;-62
2021/12/29 09:01:21;;;;;;;31.83;19.90;;;6.80;82.30;;;;;;5070239;28;20028;-63
2021/12/29 09:03:48;;;;;;;33.45;20.50;;;6.70;82.60;;;;;;5085395;28;20107;-63
2021/12/29 09:06:15;;;;;;;33.22;20.10;;;6.80;83.10;;;;;;5090375;28;20113;-62
2021/12/29 09:08:41;;;;;;;30.83;19.88;;;6.90;83.70;;;;;;5091654;28;20036;-61
2021/12/29 09:11:07;;;;;;;32.33;20.17;;;7.20;82.80;;;;;;5092546;28;20044;-61
2021/12/29 09:13:33;;;;;;;31.67;19.08;;;7.40;82.00;;;;;;5088117;28;20020;-62
2021/12/29 09:15:59;;;;;;;33.60;19.80;;;7.50;81.30;;;;;;5072880;28;20369;-62
2021/12/29 09:18:27;;;;;;;29.00;19.73;;;7.60;80.40;;;;;;5079134;28;20097;-62
2021/12/29 09:20:55;;;;;;;31.48;19.67;;;7.60;80.90;;;;;;5077367;28;20037;-62
2021/12/29 09:23:21;;;;;;;32.25;17.88;;;7.80;80.60;;;;;;5071442;28;20109;-62
2021/12/29 09:25:48;;;;;;;29.17;17.60;;;8.00;80.50;;;;;;5088546;28;20036;-66
2021/12/29 09:28:17;;;;;;;29.17;16.95;;;8.10;79.80;;;;;;5088364;28;20040;-61
2021/12/29 09:30:45;;;;;;;28.65;17.65;;;8.10;79.20;;;;;;5072418;28;20466;-62
2021/12/29 09:33:12;;;;;;;31.42;19.35;;;8.20;78.90;;;;;;5071750;28;20028;-62
2021/12/29 09:35:38;;;;;;;32.97;19.90;;;8.20;78.50;;;;;;5052534;28;20043;-60
2021/12/29 09:38:06;;;;;;;31.20;19.05;;;8.10;78.10;;;;;;5088902;28;20031;-61
2021/12/29 09:40:33;;;;;;;28.10;18.80;;;8.10;78.80;;;;;;5058863;28;20047;-61
2021/12/29 09:42:59;;;;;;;30.48;19.00;;;8.30;79.10;;;;;;5068671;28;20158;-61
2021/12/29 09:45:26;;;;;;;30.73;20.15;;;8.50;78.80;;;;;;5068469;28;20119;-61
2021/12/29 09:47:53;;;;;;;31.48;18.60;;;8.50;77.90;;;;;;5072575;28;20131;-61
2021/12/29 09:50:20;;;;;;;33.60;19.95;;;8.60;78.10;;;;;;5068988;28;20535;-61
2021/12/29 09:52:47;;;;;;;31.52;19.88;;;8.70;77.30;;;;;;5064712;28;20025;-61
2021/12/29 09:55:19;;;;;;;29.25;19.55;;;8.70;77.40;;;;;;5072104;28;20024;-62
2021/12/29 09:57:47;;;;;;;31.25;19.00;;;8.70;77.60;;;;;;5071824;28;20377;-61
2021/12/29 10:00:24;;;;;;;32.60;21.63;;;8.90;77.10;;;;;;5070057;28;20516;-61
2021/12/29 10:02:49;;;;;;;33.45;20.80;;;8.90;76.40;;;;;;5070623;28;20028;-61
2021/12/29 10:05:16;;;;;;;31.38;20.75;;;8.80;76.30;;;;;;5070910;28;20035;-61
2021/12/29 10:07:42;;;;;;;30.45;19.05;;;8.70;76.60;;;;;;5073363;28;20043;-61
2021/12/29 10:10:21;;;;;;;34.72;20.65;;;8.50;77.20;;;;;;5073205;28;20041;-61
2021/12/29 10:12:47;;;;;;;32.65;21.58;;;8.50;78.00;;;;;;5070155;28;20021;-61
2021/12/29 10:15:14;;;;;;;36.20;23.45;;;8.60;78.10;;;;;;5072557;28;20440;-65
2021/12/29 10:17:40;;;;;;;35.53;20.63;;;8.50;78.10;;;;;;5074225;28;20032;-61
2021/12/29 10:20:15;;;;;;;40.72;23.67;;;8.60;78.70;;;;;;5074226;28;20044;-61
2021/12/29 10:22:41;;;;;;;30.90;20.15;;;8.70;79.00;;;;;;5080370;28;20028;-61
2021/12/29 10:25:12;;;;;;;29.23;20.60;;;8.80;78.00;;;;;;5091310;28;20379;-61
2021/12/29 10:27:39;;;;;;;29.98;18.95;;;8.90;78.40;;;;;;5088725;28;20036;-62
2021/12/29 10:30:24;;;;;;;34.70;19.50;;;9.20;78.10;;;;;;5082469;28;20020;-61
2021/12/29 10:32:51;;;;;;;38.95;21.77;;;9.30;76.20;;;;;;5073524;28;20279;-61
2021/12/29 10:35:35;;;;;;;30.42;19.40;;;9.30;76.20;;;;;;5071245;28;20086;-61
2021/12/29 10:38:14;;;;;;;;;;;9.40;76.30;;;;;;5067901;28;20024;-60
2021/12/29 10:40:40;;;;;;;29.98;19.88;;;9.30;76.20;;;;;;5069477;28;20414;-62
2021/12/29 10:43:06;;;;;;;33.15;20.50;;;9.30;76.70;;;;;;5068294;28;20024;-59
2021/12/29 10:45:35;;;;;;;34.67;19.77;;;9.30;77.10;;;;;;5068984;28;20032;-60
2021/12/29 10:48:15;;;;;;;39.83;19.63;;;9.50;77.40;;;;;;5066226;28;20028;-60
2021/12/29 10:50:41;;;;;;;16.38;9.73;;;9.60;77.60;;;;;;5066939;28;20034;-61
2021/12/29 10:53:07;;;;;;;16.40;10.38;;;9.80;77.80;;;;;;5053448;28;20024;-58
2021/12/29 10:55:36;;;;;;;9.73;4.75;;;10.00;78.90;;;;;;5066731;28;20036;-60
2021/12/29 10:58:14;;;;;;;6.85;4.35;;;10.10;79.30;;;;;;5072228;28;20070;-61
2021/12/29 11:00:43;;;;;;;4.65;2.67;;;10.30;79.60;;;;;;5069273;28;20082;-60
2021/12/29 11:03:16;;;;;;;2.80;1.33;;;10.50;79.40;;;;;;5070906;28;20039;-60
2021/12/29 11:05:48;;;;;;;3.03;1.38;;;10.80;78.80;;;;;;5068855;28;20453;-60
2021/12/29 11:08:15;;;;;;;3.63;1.58;;;10.80;78.60;;;;;;5087145;28;20031;-61
2021/12/29 11:10:43;;;;;;;2.90;1.73;;;10.90;78.10;;;;;;5085423;28;20094;-59
2021/12/29 11:13:09;;;;;;;3.35;1.75;;;11.10;78.20;;;;;;5070818;28;20043;-61
2021/12/29 11:15:39;;;;;;;3.17;1.88;;;11.10;77.40;;;;;;5065265;28;20268;-61
2021/12/29 11:18:09;;;;;;;3.35;1.73;;;11.20;77.70;;;;;;5088923;28;20020;-62
2021/12/29 11:20:37;;;;;;;3.83;1.92;;;11.20;77.10;;;;;;5071351;28;20089;-60
2021/12/29 11:23:05;;;;;;;2.97;1.90;;;11.20;76.80;;;;;;5070315;28;20048;-60
2021/12/29 11:25:32;;;;;;;3.75;2.17;;;11.30;76.80;;;;;;5067636;28;20041;-60
2021/12/29 11:28:00;;;;;;;5.88;1.88;;;11.50;76.40;;;;;;5071490;28;20032;-61
2021/12/29 11:30:27;;;;;;;2.97;1.60;;;11.60;76.10;;;;;;5073418;28;20099;-60
2021/12/29 11:33:08;;;;;;;3.10;1.30;;;12.10;74.40;;;;;;5087901;28;20044;-63
2021/12/29 11:35:50;;;;;;;3.38;1.70;;;12.10;73.00;;;;;;5075818;28;20029;-60
2021/12/29 11:38:18;;;;;;;5.47;1.73;;;12.10;73.20;;;;;;5069416;28;20017;-61
2021/12/29 11:40:49;;;;;;;3.92;1.60;;;12.20;72.90;;;;;;5070041;28;20024;-62
2021/12/29 11:43:18;;;;;;;4.28;1.67;;;12.20;72.20;;;;;;5070826;28;20024;-61
2021/12/29 11:45:46;;;;;;;6.22;2.13;;;12.10;72.60;;;;;;5072706;28;20024;-61
2021/12/29 11:48:13;;;;;;;2.83;1.40;;;12.00;72.90;;;;;;5071346;28;20174;-60
2021/12/29 11:50:51;;;;;;;4.15;1.70;;;12.10;73.00;;;;;;5071322;28;20043;-61
2021/12/29 11:53:50;;;;;;;3.55;1.80;;;12.00;72.90;;;;;;5070579;28;20024;-60
2021/12/29 11:56:19;;;;;;;4.63;2.45;;;11.90;73.70;;;;;;5070398;28;20032;-61
2021/12/29 11:58:47;;;;;;;3.28;1.85;;;11.80;74.10;;;;;;5070682;28;20021;-61
2021/12/29 12:01:15;;;;;;;2.67;1.63;;;11.70;74.50;;;;;;5068083;28;20468;-59
2021/12/29 12:03:51;;;;;;;4.43;2.03;;;11.50;75.30;;;;;;5070972;28;20449;-60
2021/12/29 12:06:20;;;;;;;3.97;1.92;;;11.40;75.90;;;;;;5050728;28;20025;-60
2021/12/29 12:08:46;;;;;;;6.63;3.15;;;11.30;76.60;;;;;;5053700;28;20453;-68
2021/12/29 12:11:41;;;;;;;6.68;3.75;;;11.40;76.90;;;;;;5081228;28;20109;-64
2021/12/29 12:14:24;;;;;;;9.13;4.50;;;11.30;77.20;;;;;;5065198;28;20040;-66
2021/12/29 12:16:54;;;;;;;5.20;2.83;;;11.30;77.40;;;;;;5075853;28;20497;-65
2021/12/29 12:19:22;;;;;;;5.80;3.60;;;11.30;77.50;;;;;;5067315;28;20416;-64
2021/12/29 12:21:59;;;;;;;5.60;3.00;;;11.30;77.80;;;;;;5062229;28;20037;-63
2021/12/29 12:24:25;;;;;;;5.50;3.45;;;11.30;78.10;;;;;;5067456;28;20055;-64
2021/12/29 12:26:55;;;;;;;4.43;2.30;;;11.20;78.10;;;;;;5068656;28;20365;-63
2021/12/29 12:29:24;;;;;;;4.13;2.30;;;11.20;78.10;;;;;;5068150;28;20055;-66
2021/12/29 12:32:00;;;;;;;5.28;3.00;;;11.10;78.20;;;;;;5070054;28;20032;-64
2021/12/29 12:34:26;;;;;;;9.70;3.70;;;11.10;78.60;;;;;;5071332;28;20056;-66
2021/12/29 12:36:51;;;;;;;7.63;3.47;;;11.10;78.90;;;;;;5073759;28;20028;-70
2021/12/29 12:39:19;;;;;;;3.67;2.45;;;11.10;79.10;;;;;;5074007;28;20021;-66
2021/12/29 12:41:50;;;;;;;8.07;4.82;;;11.10;79.20;;;;;;5069273;28;20035;-69
2021/12/29 12:44:28;;;;;;;23.90;14.48;;;11.10;79.50;;;;;;5073465;28;20056;-69
2021/12/29 12:47:13;;;;;;;5.45;3.13;;;11.20;79.40;;;;;;5066952;28;20025;-69